createdAt,value
2023-03-04T00:00:17.019Z,45.75
2023-03-04T00:02:45.447Z,44.13
2023-03-04T00:05:16.927Z,43.30
2023-03-04T00:07:45.484Z,40.30
2023-03-04T00:10:14.729Z,42.40
2023-03-04T00:12:43.087Z,40.95
2023-03-04T00:15:11.819Z,47.28
2023-03-04T00:17:46.244Z,46.45
2023-03-04T00:20:15.594Z,49.63
2023-03-04T00:22:44.056Z,48.80
2023-03-04T00:25:14.369Z,41.47
2023-03-04T00:28:02.597Z,44.08
2023-03-04T00:30:30.991Z,42.58
2023-03-04T00:32:59.477Z,35.90
2023-03-04T00:35:28.255Z,41.50
2023-03-04T00:38:03.312Z,41.97
2023-03-04T00:40:31.661Z,49.40
2023-03-04T00:43:01.348Z,55.53
2023-03-04T00:45:29.792Z,44.45
2023-03-04T00:47:58.117Z,47.55
2023-03-04T00:50:26.455Z,43.97
2023-03-04T00:52:54.863Z,49.47
2023-03-04T00:55:23.595Z,51.80
2023-03-04T00:57:51.891Z,53.92
2023-03-04T01:00:22.631Z,59.22
2023-03-04T01:02:52.445Z,54.55
2023-03-04T01:05:21.408Z,44.75
2023-03-04T01:07:52.894Z,56.33
2023-03-04T01:10:22.336Z,57.65
2023-03-04T01:12:50.743Z,43.65
2023-03-04T01:15:19.356Z,50.88
2023-03-04T01:17:49.192Z,49.28
2023-03-04T01:20:18.464Z,56.90
2023-03-04T01:22:47.013Z,45.03
2023-03-04T01:25:16.695Z,44.78
2023-03-04T01:27:45.126Z,48.95
2023-03-04T01:30:15.955Z,41.13
2023-03-04T01:32:44.232Z,56.90
2023-03-04T01:35:14.088Z,42.78
2023-03-04T01:37:42.420Z,47.03
2023-03-04T01:40:11.949Z,47.72
2023-03-04T01:42:40.447Z,50.20
2023-03-04T01:45:12.274Z,47.97
2023-03-04T01:47:40.814Z,49.67
2023-03-04T01:50:18.404Z,42.45
2023-03-04T01:52:46.971Z,50.58
2023-03-04T01:55:21.231Z,43.67
2023-03-04T01:57:51.774Z,47.60
2023-03-04T02:00:27.822Z,48.25
2023-03-04T02:02:59.909Z,52.38
2023-03-04T02:05:31.190Z,49.05
2023-03-04T02:08:02.868Z,50.45
2023-03-04T02:10:31.869Z,43.80
2023-03-04T02:13:01.171Z,46.92
2023-03-04T02:15:29.776Z,47.00
2023-03-04T02:17:58.817Z,46.00
2023-03-04T02:20:43.959Z,41.92
2023-03-04T02:23:18.852Z,45.15
2023-03-04T02:26:15.396Z,50.28
2023-03-04T02:28:46.718Z,46.30
2023-03-04T02:31:25.032Z,52.88
2023-03-04T02:33:55.306Z,47.72
2023-03-04T02:36:24.834Z,47.60
2023-03-04T02:38:56.968Z,43.22
2023-03-04T02:41:27.794Z,48.28
2023-03-04T02:43:57.974Z,39.45
2023-03-04T02:46:27.117Z,48.42
2023-03-04T02:48:56.028Z,53.20
2023-03-04T02:51:24.461Z,58.15
2023-03-04T02:53:55.949Z,45.95
2023-03-04T02:56:25.028Z,50.10
2023-03-04T02:58:53.568Z,49.10
2023-03-04T03:01:26.020Z,50.80
2023-03-04T03:03:55.125Z,50.88
2023-03-04T03:06:26.344Z,41.40
2023-03-04T03:08:54.666Z,49.03
2023-03-04T03:11:23.143Z,51.15
2023-03-04T03:13:53.524Z,49.85
2023-03-04T03:16:23.962Z,49.10
2023-03-04T03:18:52.606Z,46.72
2023-03-04T03:21:25.012Z,53.30
2023-03-04T03:23:53.386Z,51.30
2023-03-04T03:26:21.923Z,53.00
2023-03-04T03:28:52.897Z,41.50
2023-03-04T03:31:25.363Z,49.88
2023-03-04T03:33:53.815Z,51.83
2023-03-04T03:36:24.158Z,47.72
2023-03-04T03:38:52.581Z,48.85
2023-03-04T03:41:21.803Z,46.28
2023-03-04T03:43:50.315Z,57.22
2023-03-04T03:46:18.606Z,56.15
2023-03-04T03:48:48.275Z,41.92
2023-03-04T03:51:17.070Z,52.53
2023-03-04T03:53:45.449Z,45.75
2023-03-04T03:56:16.885Z,48.78
2023-03-04T03:58:47.936Z,47.05
2023-03-04T04:01:16.409Z,51.45
2023-03-04T04:03:45.285Z,50.08
2023-03-04T04:06:15.380Z,51.67
2023-03-04T04:08:44.014Z,44.13
2023-03-04T04:11:13.262Z,50.00
2023-03-04T04:13:41.954Z,42.35
2023-03-04T04:16:11.628Z,49.55
2023-03-04T04:18:39.925Z,45.88
2023-03-04T04:21:08.531Z,46.65
2023-03-04T04:23:39.355Z,47.47
2023-03-04T04:26:07.910Z,45.42
2023-03-04T04:28:36.360Z,49.60
2023-03-04T04:31:07.882Z,42.50
2023-03-04T04:33:36.457Z,48.55
2023-03-04T04:36:05.859Z,45.05
2023-03-04T04:38:34.172Z,54.70
2023-03-04T04:41:04.398Z,45.72
2023-03-04T04:43:34.067Z,42.25
2023-03-04T04:46:02.365Z,42.97
2023-03-04T04:48:30.826Z,37.58
2023-03-04T04:50:59.119Z,41.92
2023-03-04T04:53:27.508Z,48.75
2023-03-04T04:55:55.806Z,39.50
2023-03-04T04:58:25.473Z,42.42
2023-03-04T05:00:54.045Z,41.08
2023-03-04T05:03:23.636Z,38.92
2023-03-04T05:05:52.029Z,45.95
2023-03-04T05:08:23.322Z,37.70
2023-03-04T05:10:51.746Z,45.65
2023-03-04T05:13:20.340Z,34.25
2023-03-04T05:15:52.021Z,38.08
2023-03-04T05:18:20.536Z,33.53
2023-03-04T05:20:53.021Z,36.60
2023-03-04T05:23:21.473Z,38.25
2023-03-04T05:25:50.059Z,32.13
2023-03-04T05:28:18.850Z,38.00
2023-03-04T05:30:51.743Z,35.53
2023-03-04T05:33:20.749Z,44.67
2023-03-04T05:35:49.958Z,37.47
2023-03-04T05:38:22.831Z,40.55
2023-03-04T05:40:51.594Z,30.33
2023-03-04T05:43:19.887Z,34.08
2023-03-04T05:45:50.712Z,39.90
2023-03-04T05:48:19.187Z,33.85
2023-03-04T05:50:47.609Z,31.23
2023-03-04T05:53:16.094Z,39.22
2023-03-04T05:55:48.449Z,35.67
2023-03-04T05:58:17.809Z,38.92
2023-03-04T06:00:46.584Z,37.65
2023-03-04T06:03:18.786Z,32.00
2023-03-04T06:05:47.322Z,34.08
2023-03-04T06:08:15.867Z,34.85
2023-03-04T06:10:44.150Z,31.13
2023-03-04T06:13:13.573Z,27.40
2023-03-04T06:15:41.827Z,31.50
2023-03-04T06:18:10.282Z,36.72
2023-03-04T06:20:41.225Z,35.55
2023-03-04T06:23:09.485Z,33.38
2023-03-04T06:25:37.914Z,33.72
2023-03-04T06:28:07.409Z,34.83
2023-03-04T06:30:36.160Z,34.70
2023-03-04T06:33:04.807Z,30.75
2023-03-04T06:35:33.264Z,34.25
2023-03-04T06:38:03.880Z,30.77
2023-03-04T06:40:33.222Z,35.38
2023-03-04T06:43:01.564Z,30.40
2023-03-04T06:45:30.138Z,30.60
2023-03-04T06:47:58.518Z,34.25
2023-03-04T06:50:26.788Z,34.25
2023-03-04T06:52:57.216Z,35.92
2023-03-04T06:55:28.978Z,31.70
2023-03-04T06:57:57.505Z,35.00
2023-03-04T07:00:26.655Z,26.90
2023-03-04T07:02:55.365Z,36.20
2023-03-04T07:05:23.719Z,32.92
2023-03-04T07:07:52.043Z,34.15
2023-03-04T07:10:21.012Z,33.47
2023-03-04T07:12:51.062Z,29.30
2023-03-04T07:15:19.513Z,28.55
2023-03-04T07:17:47.785Z,34.35
2023-03-04T07:20:16.270Z,32.60
2023-03-04T07:22:44.482Z,33.65
2023-03-04T07:25:12.804Z,34.53
2023-03-04T07:27:41.097Z,28.60
2023-03-04T07:30:13.092Z,33.53
2023-03-04T07:32:41.528Z,31.25
2023-03-04T07:35:10.323Z,28.45
2023-03-04T07:37:40.375Z,28.33
2023-03-04T07:40:10.278Z,30.25
2023-03-04T07:42:38.576Z,39.30
2023-03-04T07:45:13.698Z,28.48
2023-03-04T07:47:42.732Z,35.78
2023-03-04T07:50:12.664Z,24.60
2023-03-04T07:52:41.750Z,36.53
2023-03-04T07:55:10.982Z,28.55
2023-03-04T07:57:40.484Z,27.52
2023-03-04T08:00:11.843Z,23.83
2023-03-04T08:02:44.651Z,25.98
2023-03-04T08:05:13.055Z,29.55
2023-03-04T08:07:41.417Z,33.17
2023-03-04T08:10:11.148Z,29.25
2023-03-04T08:12:39.945Z,23.90
2023-03-04T08:15:13.872Z,26.30
2023-03-04T08:17:42.210Z,28.20
2023-03-04T08:20:13.682Z,23.27
2023-03-04T08:22:42.172Z,22.92
2023-03-04T08:25:13.629Z,26.15
2023-03-04T08:27:42.007Z,23.33
2023-03-04T08:30:12.421Z,26.63
2023-03-04T08:32:41.014Z,24.17
2023-03-04T08:35:09.401Z,28.90
2023-03-04T08:37:39.209Z,24.67
2023-03-04T08:40:09.059Z,32.05
2023-03-04T08:42:37.582Z,32.78
2023-03-04T08:45:06.888Z,22.67
2023-03-04T08:47:35.151Z,30.50
2023-03-04T08:50:03.527Z,21.83
2023-03-04T08:52:31.862Z,24.65
2023-03-04T08:55:02.321Z,29.77
2023-03-04T08:57:30.671Z,33.75
2023-03-04T08:59:59.125Z,23.20
2023-03-04T09:02:27.777Z,21.90
2023-03-04T09:04:56.090Z,21.25
2023-03-04T09:07:24.392Z,28.50
2023-03-04T09:09:52.569Z,21.90
2023-03-04T09:12:22.708Z,22.75
2023-03-04T09:15:08.289Z,27.67
2023-03-04T09:17:39.198Z,22.90
2023-03-04T09:20:10.335Z,26.90
2023-03-04T09:22:38.867Z,23.80
2023-03-04T09:25:11.586Z,21.77
2023-03-04T09:27:43.604Z,23.73
2023-03-04T09:30:15.831Z,29.75
2023-03-04T09:32:44.207Z,22.30
2023-03-04T09:35:12.690Z,18.90
2023-03-04T09:37:41.814Z,22.83
2023-03-04T09:40:17.290Z,25.80
2023-03-04T09:42:51.259Z,23.55
2023-03-04T09:45:22.587Z,24.73
2023-03-04T09:47:53.559Z,28.67
2023-03-04T09:50:23.147Z,31.35
2023-03-04T09:53:07.710Z,22.63
2023-03-04T09:55:39.346Z,24.95
2023-03-04T09:58:23.552Z,28.75
2023-03-04T10:00:57.968Z,34.25
2023-03-04T10:03:31.850Z,28.55
2023-03-04T10:06:05.962Z,26.70
2023-03-04T10:08:50.520Z,20.75
2023-03-04T10:11:25.909Z,23.85
2023-03-04T10:14:04.544Z,24.08
2023-03-04T10:16:37.542Z,29.80
2023-03-04T10:19:21.638Z,28.05
2023-03-04T10:21:51.754Z,23.35
2023-03-04T10:24:22.797Z,29.52
2023-03-04T10:26:54.997Z,26.00
2023-03-04T10:29:26.349Z,28.20
2023-03-04T10:31:56.854Z,27.38
2023-03-04T10:34:28.359Z,24.20
2023-03-04T10:37:02.940Z,22.20
2023-03-04T10:39:33.343Z,23.98
2023-03-04T10:42:03.264Z,30.10
2023-03-04T10:44:34.690Z,33.55
2023-03-04T10:47:03.313Z,29.20
2023-03-04T10:49:32.228Z,26.70
2023-03-04T10:52:04.804Z,21.92
2023-03-04T10:54:38.204Z,23.38
2023-03-04T10:57:14.440Z,30.92
2023-03-04T10:59:53.603Z,24.80
2023-03-04T11:02:25.393Z,27.52
2023-03-04T11:05:06.092Z,28.40
2023-03-04T11:07:54.085Z,24.45
2023-03-04T11:10:26.384Z,38.75
2023-03-04T11:13:01.091Z,24.17
2023-03-04T11:15:32.429Z,24.65
2023-03-04T11:18:04.622Z,28.05
2023-03-04T11:20:35.694Z,28.70
2023-03-04T11:23:07.298Z,28.00
2023-03-04T11:25:38.079Z,29.98
2023-03-04T11:28:13.124Z,29.77
2023-03-04T11:30:45.248Z,27.98
2023-03-04T11:33:23.426Z,29.80
2023-03-04T11:36:00.942Z,28.98
2023-03-04T11:38:36.551Z,30.02
2023-03-04T11:41:11.359Z,31.13
2023-03-04T11:43:43.510Z,26.17
2023-03-04T11:46:41.992Z,28.25
2023-03-04T11:49:24.292Z,25.23
2023-03-04T11:52:02.624Z,23.70
2023-03-04T11:54:40.023Z,32.45
2023-03-04T11:57:16.565Z,29.98
2023-03-04T12:00:17.332Z,35.33
2023-03-04T12:03:02.999Z,28.13
2023-03-04T12:05:43.693Z,33.40
2023-03-04T12:08:58.564Z,31.15
2023-03-04T12:11:39.581Z,31.13
2023-03-04T12:14:25.457Z,26.48
2023-03-04T12:17:22.130Z,31.80
2023-03-04T12:20:25.467Z,30.45
2023-03-04T12:23:03.298Z,24.98
2023-03-04T12:25:43.606Z,24.75
2023-03-04T12:28:22.998Z,28.20
2023-03-04T12:31:03.175Z,22.98
2023-03-04T12:33:44.101Z,28.08
2023-03-04T12:36:21.943Z,27.92
2023-03-04T12:39:19.335Z,29.35
2023-03-04T12:41:53.465Z,28.85
2023-03-04T12:44:24.121Z,30.17
2023-03-04T12:47:16.574Z,26.30
2023-03-04T12:49:56.792Z,21.60
2023-03-04T12:52:36.588Z,23.83
2023-03-04T12:55:11.398Z,21.38
2023-03-04T12:57:42.234Z,24.70
2023-03-04T13:00:22.145Z,24.00
2023-03-04T13:03:01.184Z,30.90
2023-03-04T13:05:53.787Z,19.67
2023-03-04T13:08:33.455Z,19.55
2023-03-04T13:11:25.437Z,20.38
2023-03-04T13:14:03.572Z,21.67
2023-03-04T13:16:33.722Z,22.90
2023-03-04T13:19:02.124Z,24.25
2023-03-04T13:21:33.839Z,23.95
2023-03-04T13:24:46.322Z,22.30
2023-03-04T13:27:46.182Z,6.22
2023-03-04T13:30:42.859Z,11.80
2023-03-04T13:33:48.355Z,12.38
2023-03-04T13:36:59.653Z,6.93
2023-03-04T13:39:34.308Z,6.28
2023-03-04T13:42:03.508Z,6.57
2023-03-04T13:44:52.048Z,13.23
2023-03-04T13:47:24.152Z,5.28
2023-03-04T13:50:34.811Z,8.23
2023-03-04T13:53:33.510Z,4.03
2023-03-04T13:56:31.666Z,6.53
2023-03-04T13:59:27.075Z,8.48
2023-03-04T14:02:04.631Z,5.05
2023-03-04T14:04:36.439Z,4.05
2023-03-04T14:07:22.446Z,4.55
2023-03-04T14:09:59.811Z,5.78
2023-03-04T14:12:31.421Z,6.00
2023-03-04T14:15:02.343Z,7.15
2023-03-04T14:17:33.377Z,7.55
2023-03-04T14:20:03.443Z,6.88
2023-03-04T14:22:33.810Z,8.57
2023-03-04T14:25:04.176Z,16.05
2023-03-04T14:27:36.510Z,12.07
2023-03-04T14:30:07.350Z,17.58
2023-03-04T14:32:35.923Z,8.48
2023-03-04T14:35:08.459Z,9.50
2023-03-04T14:37:45.431Z,11.20
2023-03-04T14:40:23.425Z,6.97
2023-03-04T14:42:56.940Z,9.13
2023-03-04T14:45:26.180Z,10.95
2023-03-04T14:47:57.625Z,10.40
2023-03-04T14:50:28.382Z,8.00
2023-03-04T14:53:16.977Z,9.07
2023-03-04T14:56:00.797Z,8.73
2023-03-04T14:58:31.813Z,10.15
2023-03-04T15:01:14.352Z,7.03
2023-03-04T15:03:44.806Z,8.13
2023-03-04T15:06:21.704Z,4.00
2023-03-04T15:08:58.586Z,4.78
2023-03-04T15:11:42.472Z,5.70
2023-03-04T15:14:45.184Z,4.13
2023-03-04T15:17:37.676Z,4.10
2023-03-04T15:20:28.316Z,11.57
2023-03-04T15:23:10.061Z,5.75
2023-03-04T15:25:38.568Z,7.13
2023-03-04T15:28:13.301Z,7.47
2023-03-04T15:30:43.551Z,8.32
2023-03-04T15:33:12.731Z,7.88
2023-03-04T15:35:42.849Z,5.47
2023-03-04T15:38:14.010Z,3.85
2023-03-04T15:40:44.649Z,4.60
2023-03-04T15:43:16.565Z,6.10
2023-03-04T15:45:47.828Z,7.57
2023-03-04T15:48:18.382Z,5.95
2023-03-04T15:50:51.712Z,16.75
2023-03-04T15:53:27.970Z,9.73
2023-03-04T15:55:57.508Z,12.40
2023-03-04T15:58:26.324Z,4.18
2023-03-04T16:00:59.149Z,12.10
2023-03-04T16:03:27.729Z,17.85
2023-03-04T16:05:56.062Z,16.48
2023-03-04T16:08:26.177Z,11.00
2023-03-04T16:10:55.129Z,7.55
2023-03-04T16:13:24.864Z,5.00
2023-03-04T16:15:53.483Z,4.70
2023-03-04T16:18:23.780Z,6.78
2023-03-04T16:20:53.265Z,6.22
2023-03-04T16:23:24.245Z,4.38
2023-03-04T16:25:56.168Z,4.70
2023-03-04T16:28:24.960Z,6.60
2023-03-04T16:30:53.352Z,4.95
2023-03-04T16:33:23.499Z,6.53
2023-03-04T16:35:52.429Z,4.40
2023-03-04T16:38:26.233Z,8.98
2023-03-04T16:40:58.238Z,4.75
2023-03-04T16:43:27.494Z,4.72
2023-03-04T16:45:58.263Z,5.10
2023-03-04T16:48:28.139Z,5.90
2023-03-04T16:50:59.384Z,11.77
2023-03-04T16:53:33.430Z,8.77
2023-03-04T16:56:05.240Z,6.68
2023-03-04T16:58:33.904Z,5.50
2023-03-04T17:01:03.044Z,5.15
2023-03-04T17:03:33.531Z,5.32
2023-03-04T17:06:01.858Z,6.75
2023-03-04T17:08:30.219Z,7.53
2023-03-04T17:10:58.491Z,12.20
2023-03-04T17:13:26.901Z,11.02
2023-03-04T17:15:55.273Z,9.25
2023-03-04T17:18:23.686Z,8.23
2023-03-04T17:20:53.516Z,8.00
2023-03-04T17:23:21.787Z,11.82
2023-03-04T17:25:57.170Z,7.97
2023-03-04T17:28:25.670Z,7.47
2023-03-04T17:30:54.278Z,13.70
2023-03-04T17:33:22.679Z,15.77
2023-03-04T17:35:52.547Z,6.43
2023-03-04T17:38:20.916Z,6.38
2023-03-04T17:40:49.197Z,6.93
2023-03-04T17:43:17.623Z,3.83
2023-03-04T17:45:45.933Z,11.32
2023-03-04T17:48:16.284Z,9.48
2023-03-04T17:50:50.049Z,12.77
2023-03-04T17:53:21.013Z,12.10
2023-03-04T17:55:53.038Z,7.57
2023-03-04T17:58:21.626Z,11.63
2023-03-04T18:00:51.052Z,13.70
2023-03-04T18:03:19.576Z,17.60
2023-03-04T18:05:47.860Z,13.50
2023-03-04T18:08:16.201Z,15.38
2023-03-04T18:10:45.894Z,9.65
2023-03-04T18:13:14.217Z,10.77
2023-03-04T18:15:42.666Z,10.23
2023-03-04T18:18:10.902Z,17.10
2023-03-04T18:20:39.336Z,12.98
2023-03-04T18:23:07.827Z,18.35
2023-03-04T18:25:36.358Z,17.92
2023-03-04T18:28:06.276Z,17.65
2023-03-04T18:30:34.622Z,32.65
2023-03-04T18:33:03.956Z,19.67
2023-03-04T18:35:32.254Z,12.65
2023-03-04T18:38:01.509Z,11.63
2023-03-04T18:40:32.398Z,12.05
2023-03-04T18:43:01.108Z,18.15
2023-03-04T18:45:30.857Z,14.68
2023-03-04T18:48:00.563Z,17.02
2023-03-04T18:50:28.906Z,10.60
2023-03-04T18:52:57.276Z,13.50
2023-03-04T18:55:26.838Z,10.70
2023-03-04T18:57:58.509Z,13.15
2023-03-04T19:00:27.272Z,12.02
2023-03-04T19:03:00.500Z,15.15
2023-03-04T19:05:34.373Z,10.40
2023-03-04T19:08:03.014Z,9.35
2023-03-04T19:10:31.371Z,13.55
2023-03-04T19:12:59.722Z,14.63
2023-03-04T19:15:28.329Z,16.75
2023-03-04T19:17:59.099Z,13.63
2023-03-04T19:20:27.396Z,12.15
2023-03-04T19:22:55.737Z,10.30
2023-03-04T19:25:24.245Z,7.45
2023-03-04T19:27:55.321Z,8.25
2023-03-04T19:30:24.024Z,10.75
2023-03-04T19:32:52.270Z,12.65
2023-03-04T19:35:22.119Z,16.73
2023-03-04T19:37:50.924Z,16.15
2023-03-04T19:40:19.681Z,10.57
2023-03-04T19:42:48.349Z,12.20
2023-03-04T19:45:16.814Z,11.35
2023-03-04T19:47:45.137Z,6.78
2023-03-04T19:50:14.183Z,6.78
2023-03-04T19:52:44.480Z,6.85
2023-03-04T19:55:14.041Z,11.30
2023-03-04T19:57:43.373Z,6.47
2023-03-04T20:00:12.960Z,12.50
2023-03-04T20:02:43.250Z,4.65
2023-03-04T20:05:12.519Z,7.40
2023-03-04T20:07:41.087Z,9.80
2023-03-04T20:10:12.846Z,5.93
2023-03-04T20:12:41.234Z,4.97
2023-03-04T20:15:10.372Z,7.35
2023-03-04T20:17:38.796Z,8.23
2023-03-04T20:20:10.716Z,8.50
2023-03-04T20:22:39.261Z,7.22
2023-03-04T20:25:08.212Z,6.50
2023-03-04T20:27:38.149Z,6.72
2023-03-04T20:30:07.551Z,6.13
2023-03-04T20:32:39.450Z,9.43
2023-03-04T20:35:14.043Z,10.73
2023-03-04T20:37:43.000Z,5.68
2023-03-04T20:40:13.252Z,12.23
2023-03-04T20:42:43.130Z,10.15
2023-03-04T20:45:12.611Z,5.63
2023-03-04T20:47:43.180Z,9.93
2023-03-04T20:50:12.540Z,5.53
2023-03-04T20:52:40.962Z,7.07
2023-03-04T20:55:10.120Z,8.45
2023-03-04T20:57:39.604Z,12.00
2023-03-04T21:00:11.369Z,7.63
2023-03-04T21:02:39.916Z,7.90
2023-03-04T21:05:09.014Z,7.88
2023-03-04T21:07:37.290Z,10.40
2023-03-04T21:10:06.784Z,6.32
2023-03-04T21:12:35.150Z,11.77
2023-03-04T21:15:03.558Z,19.00
2023-03-04T21:17:33.331Z,6.88
2023-03-04T21:20:01.697Z,7.45
2023-03-04T21:22:30.084Z,9.30
2023-03-04T21:24:58.420Z,9.85
2023-03-04T21:27:26.643Z,8.18
2023-03-04T21:29:55.072Z,7.22
2023-03-04T21:32:26.635Z,12.75
2023-03-04T21:34:57.150Z,12.43
2023-03-04T21:37:26.703Z,10.43
2023-03-04T21:39:55.506Z,8.07
2023-03-04T21:42:23.912Z,11.18
2023-03-04T21:44:52.740Z,9.93
2023-03-04T21:47:22.185Z,8.38
2023-03-04T21:49:50.777Z,5.82
2023-03-04T21:52:21.752Z,16.02
2023-03-04T21:54:50.795Z,11.43
2023-03-04T21:57:19.646Z,14.45
2023-03-04T21:59:48.053Z,6.18
2023-03-04T22:02:17.582Z,5.80
2023-03-04T22:04:46.183Z,13.80
2023-03-04T22:07:14.743Z,6.85
2023-03-04T22:09:44.517Z,13.32
2023-03-04T22:12:14.476Z,11.20
2023-03-04T22:14:43.051Z,16.40
2023-03-04T22:17:11.558Z,5.88
2023-03-04T22:19:39.911Z,7.35
2023-03-04T22:22:08.184Z,9.30
2023-03-04T22:24:36.514Z,11.48
2023-03-04T22:27:06.206Z,6.32
2023-03-04T22:29:34.567Z,7.53
2023-03-04T22:32:02.897Z,12.43
2023-03-04T22:34:31.319Z,5.80
2023-03-04T22:36:59.713Z,5.30
2023-03-04T22:39:28.139Z,9.18
2023-03-04T22:41:56.378Z,6.40
2023-03-04T22:44:26.230Z,5.13
2023-03-04T22:46:54.672Z,9.00
2023-03-04T22:49:23.030Z,11.50
2023-03-04T22:51:51.275Z,7.07
2023-03-04T22:54:20.329Z,6.72
2023-03-04T22:56:48.722Z,13.35
2023-03-04T22:59:17.335Z,6.75
2023-03-04T23:01:47.081Z,9.57
2023-03-04T23:04:15.438Z,8.88
2023-03-04T23:06:43.937Z,7.82
2023-03-04T23:09:12.265Z,10.90
2023-03-04T23:11:40.527Z,8.40
2023-03-04T23:14:11.707Z,11.02
2023-03-04T23:16:43.304Z,9.30
2023-03-04T23:19:16.423Z,9.85
2023-03-04T23:21:45.359Z,10.13
2023-03-04T23:24:14.719Z,6.38
2023-03-04T23:26:43.755Z,10.52
2023-03-04T23:29:16.093Z,7.70
2023-03-04T23:31:45.390Z,13.75
2023-03-04T23:34:15.198Z,6.97
2023-03-04T23:36:44.095Z,7.70
2023-03-04T23:39:14.124Z,12.32
2023-03-04T23:41:42.588Z,9.27
2023-03-04T23:44:12.621Z,8.10
2023-03-04T23:46:41.262Z,8.15
2023-03-04T23:49:12.612Z,7.13
2023-03-04T23:51:44.311Z,6.35
2023-03-04T23:54:13.523Z,6.07
2023-03-04T23:56:42.097Z,8.65
2023-03-04T23:59:12.004Z,13.75
